^^
Soleil Laural Canyon Historical Data
 
Daily Summary for November 19, 2019 Units:  English    Metric   Both
Daily Weekly Monthly Yearly Custom
  Current: High: Low: Average:
Temperature: 43 °F 47.3 °F 42.4 °F 44.9 °F
Dew Point: 35.2 °F 37.8 °F 34.7 °F 36.3 °F
Humidity: 74% 75% 69% 72%
Wind Speed: 0.4mph 4.5mph 0mph 1.4mph
Wind Gust: 1.1mph 6.9mph - -
WindEast - - SSE
Pressure: 29.91 in 29.91 in 29.85 in -
Precipitation: 0 in      
Historical Graphs
 
 
Tabular Data for November 19, 2019
Time Temperature Dew Point Pressure Wind Wind Speed Wind Gust Humidity Rainfall Rate (Hourly) solar
00:00 47.3 °F 37.8 °F 29.86 in South 0.7 mph 1.1 mph 69% 0 in 0.00 W/m2
00:05 47.3 °F 37.8 °F 29.86 in SSE 0.2 mph 1.1 mph 69% 0 in 0.00 W/m2
00:11 46.9 °F 37.4 °F 29.87 in SSE 2 mph 2.2 mph 69% 0 in 0.00 W/m2
00:17 46.9 °F 37.8 °F 29.86 in SSE 1.6 mph 2.2 mph 70% 0 in 0.00 W/m2
00:20 46.8 °F 37.6 °F 29.86 in SSE 0.2 mph 1.1 mph 70% 0 in 0.00 W/m2
00:27 46.8 °F 37.2 °F 29.86 in SSE 2.2 mph 3.4 mph 69% 0 in 0.00 W/m2
00:30 46.8 °F 37.6 °F 29.87 in South 0.7 mph 1.1 mph 70% 0 in 0.00 W/m2
00:35 46.8 °F 37.6 °F 29.86 in South 1.8 mph 2.2 mph 70% 0 in 0.00 W/m2
00:40 46.8 °F 37.2 °F 29.86 in SSE 2.5 mph 3.4 mph 69% 0 in 0.00 W/m2
00:50 46.8 °F 37.174 °F 29.86 in SSE 1.3 mph 2.2 mph 69% 0 in 0.00 W/m2
00:55 46.9 °F 37.2697 °F 29.85 in South 2.2 mph 3.4 mph 69% 0 in 0.00 W/m2
01:00 46.9 °F 37.4 °F 29.86 in South 1.8 mph 2.2 mph 69% 0 in 0.00 W/m2
01:05 46.8 °F 37.174 °F 29.86 in South 4.5 mph 5.8 mph 69% 0 in 0.00 W/m2
01:10 46.9 °F 37.2697 °F 29.86 in South 0.9 mph 1.1 mph 69% 0 in 0.00 W/m2
01:16 46.8 °F 37.2 °F 29.86 in South 1.6 mph 2.2 mph 69% 0 in 0.00 W/m2
01:20 46.6 °F 37.4 °F 29.86 in SSE 0.4 mph 1.1 mph 70% 0 in 0.00 W/m2
01:26 46.4 °F 37.2 °F 29.85 in South 1.6 mph 2.2 mph 70% 0 in 0.00 W/m2
01:30 46.4 °F 37.2 °F 29.85 in Calm     70% 0 in 0.00 W/m2
01:35 46.4 °F 37.2 °F 29.86 in SE 0.7 mph 1.1 mph 70% 0 in 0.00 W/m2
01:40 46.2 °F 37 °F 29.86 in SE 1.3 mph 3.4 mph 70% 0 in 0.00 W/m2
01:45 46.2 °F 37 °F 29.86 in SE 3.4 mph 4.5 mph 70% 0 in 0.00 W/m2
01:52 46.2 °F 37 °F 29.86 in South 2.5 mph 4.5 mph 70% 0 in 0.00 W/m2
01:56 46 °F 36.9 °F 29.86 in SE 1.8 mph 2.2 mph 70% 0 in 0.00 W/m2
02:00 46 °F 36.9 °F 29.85 in South 0.2 mph 1.1 mph 70% 0 in 0.00 W/m2
02:06 46 °F 36.9 °F 29.86 in SE 1.1 mph 2.2 mph 70% 0 in 0.00 W/m2
02:10 45.9 °F 36.7 °F 29.86 in Calm     70% 0 in 0.00 W/m2
02:15 45.7 °F 36.9 °F 29.85 in South 2.5 mph 3.4 mph 71% 0 in 0.00 W/m2
02:22 45.7 °F 36.9 °F 29.85 in South 0.4 mph 1.1 mph 71% 0 in 0.00 W/m2
02:25 45.5 °F 36.7 °F 29.86 in SSW 2.9 mph 3.4 mph 71% 0 in 0.00 W/m2
02:31 45.5 °F 36.7 °F 29.85 in South 1.8 mph 2.2 mph 71% 0 in 0.00 W/m2
02:35 45.3 °F 36.5 °F 29.86 in SE 2 mph 3.4 mph 71% 0 in 0.00 W/m2
02:40 45.3 °F 36.4599 °F 29.86 in West 0.7 mph 1.1 mph 71% 0 in 0.00 W/m2
02:46 45.1 °F 36.7 °F 29.86 in SSE 2.7 mph 3.4 mph 72% 0 in 0.00 W/m2
02:50 45 °F 36.5 °F 29.87 in SSE 1.6 mph 2.2 mph 72% 0 in 0.00 W/m2
02:55 45 °F 36.5 °F 29.86 in ESE 4 mph 5.8 mph 72% 0 in 0.00 W/m2
03:00 45 °F 36.5 °F 29.87 in ESE 1.8 mph 3.4 mph 72% 0 in 0.00 W/m2
03:09 45 °F 36.5 °F 29.87 in ENE 2.5 mph 4.5 mph 72% 0 in 0.00 W/m2
03:10 45 °F 36.5 °F 29.87 in SW 0.2 mph 1.1 mph 72% 0 in 0.00 W/m2
03:15 45 °F 36.5 °F 29.88 in SE 0.7 mph 2.2 mph 72% 0 in 0.00 W/m2
03:21 45 °F 36.5 °F 29.87 in South 0.7 mph 1.1 mph 72% 0 in 0.00 W/m2
03:27 45 °F 36.1 °F 29.89 in SSE 2.2 mph 6.9 mph 71% 0 in 0.00 W/m2
03:30 45 °F 36.1 °F 29.88 in South 1.8 mph 4.5 mph 71% 0 in 0.00 W/m2
03:35 45 °F 36.1718 °F 29.88 in South 2.7 mph 3.4 mph 71% 0 in 0.00 W/m2
03:42 45 °F 36.1 °F 29.88 in ESE 1.1 mph 2.2 mph 71% 0 in 0.00 W/m2
03:53 44.8 °F 36 °F 29.88 in ESE 0.7 mph 1.1 mph 71% 0 in 0.00 W/m2
03:55 44.8 °F 36 °F 29.88 in SSE 0.9 mph 2.2 mph 71% 0 in 0.00 W/m2
04:01 44.8 °F 36 °F 29.88 in ESE 0.4 mph 1.1 mph 71% 0 in 0.00 W/m2
04:10 44.4 °F 36 °F 29.88 in SSE 1.1 mph 2.2 mph 72% 0 in 0.00 W/m2
04:16 44.4 °F 36.2966 °F 29.88 in South 0.4 mph 1.1 mph 73% 0 in 0.00 W/m2
04:22 44.2 °F 36.1 °F 29.87 in ESE 2.2 mph 3.4 mph 73% 0 in 0.00 W/m2
04:26 44.2 °F 36.1 °F 29.87 in South 2.5 mph 3.4 mph 73% 0 in 0.00 W/m2
04:31 44.2 °F 36.1 °F 29.88 in SSE 0.2 mph 1.1 mph 73% 0 in 0.00 W/m2
04:36 44.2 °F 35.7558 °F 29.87 in SE 0.9 mph 1.1 mph 72% 0 in 0.00 W/m2
04:40 44.1 °F 36 °F 29.88 in ESE 1.8 mph 3.4 mph 73% 0 in 0.00 W/m2
04:52 44.1 °F 35.6 °F 29.88 in East 2.5 mph 4.5 mph 72% 0 in 0.00 W/m2
04:56 44.1 °F 36 °F 29.89 in SSE 0.7 mph 1.1 mph 73% 0 in 0.00 W/m2
05:00 44.1 °F 35.6 °F 29.88 in ESE 1.3 mph 2.2 mph 72% 0 in 0.00 W/m2
05:11 44.2 °F 35.8 °F 29.88 in SSE 0.9 mph 1.1 mph 72% 0 in 0.00 W/m2
05:15 44.1 °F 35.2 °F 29.88 in East 3.6 mph 4.5 mph 71% 0 in 0.00 W/m2
05:20 44.2 °F 35.8 °F 29.89 in South 4.5 mph 5.8 mph 72% 0 in 0.00 W/m2
05:25 44.2 °F 35.8 °F 29.89 in South 1.1 mph 1.1 mph 72% 0 in 0.00 W/m2
05:35 44.1 °F 35.6 °F 29.89 in South 1.6 mph 3.4 mph 72% 0 in 0.00 W/m2
05:43 44.1 °F 35.6 °F 29.89 in SSE 0.9 mph 3.4 mph 72% 0 in 0.00 W/m2
05:45 44.1 °F 35.2 °F 29.89 in SSE 2.2 mph 3.4 mph 71% 0 in 0.00 W/m2
05:50 43.9 °F 35.4 °F 29.89 in SE 1.8 mph 3.4 mph 72% 0 in 0.00 W/m2
05:55 43.7 °F 35.2 °F 29.89 in SSE 2.5 mph 4.5 mph 72% 0 in 0.00 W/m2
06:00 43.5 °F 35.4 °F 29.89 in SSE 1.8 mph 2.2 mph 73% 0 in 0.00 W/m2
06:05 43.5 °F 35.4 °F 29.89 in South 0.2 mph 1.1 mph 73% 0 in 0.00 W/m2
06:10 43.5 °F 35.1 °F 29.89 in SSE 1.8 mph 2.2 mph 72% 0 in 0.00 W/m2
06:15 43.5 °F 35.1 °F 29.89 in South 1.8 mph 3.4 mph 72% 0 in 0.00 W/m2
06:20 43.7 °F 35.2 °F 29.90 in South 1.1 mph 1.1 mph 72% 0 in 0.00 W/m2
06:25 43.3 °F 35.2 °F 29.90 in South 1.1 mph 1.1 mph 73% 0 in 0.00 W/m2
06:30 43.2 °F 35.4 °F 29.90 in SE 0.7 mph 2.2 mph 74% 0 in 0.00 W/m2
06:35 43 °F 35.2 °F 29.90 in Calm     74% 0 in 0.00 W/m2
06:40 42.6 °F 34.9 °F 29.91 in Calm     74% 0 in 0.00 W/m2
06:45 42.4 °F 35.1 °F 29.90 in SE 1.8 mph 2.2 mph 75% 0 in 0.00 W/m2
06:50 42.6 °F 34.9 °F 29.91 in Calm     74% 0 in 0.00 W/m2
06:55 42.6 °F 34.9 °F 29.90 in Calm     74% 0 in 0.00 W/m2
07:00 42.4 °F 34.7 °F 29.91 in SSE 1.1 mph 1.1 mph 74% 0 in 0.00 W/m2
07:05 42.4 °F 35.1 °F 29.91 in Calm     75% 0 in 0.00 W/m2
07:10 42.6 °F 35.2 °F 29.90 in South 0.4 mph 1.1 mph 75% 0 in 0.00 W/m2
07:15 42.6 °F 34.9 °F 29.91 in Calm     74% 0 in 0.36 W/m2
07:26 43 °F 35.2 °F 29.91 in East 0.4 mph 1.1 mph 74% 0 in 4.28 W/m2
Soleil Laural Canyon
Compliments of Weather Underground - 2 mb